sensor_id;sensor_type;location;lat;lon;timestamp;P1;durP1;ratioP1;P2;durP2;ratioP2
46415;SDS011;32620;51.704;7.822;2023-03-14T00:01:38;8.55;;;2.85;;
46415;SDS011;32620;51.704;7.822;2023-03-14T00:04:04;8.27;;;2.30;;
46415;SDS011;32620;51.704;7.822;2023-03-14T00:06:30;9.30;;;2.28;;
46415;SDS011;32620;51.704;7.822;2023-03-14T00:08:56;7.15;;;2.40;;
46415;SDS011;32620;51.704;7.822;2023-03-14T00:11:22;7.75;;;2.53;;
46415;SDS011;32620;51.704;7.822;2023-03-14T00:13:48;7.18;;;2.40;;
46415;SDS011;32620;51.704;7.822;2023-03-14T00:16:15;8.00;;;2.40;;
46415;SDS011;32620;51.704;7.822;2023-03-14T00:18:40;8.63;;;2.25;;
46415;SDS011;32620;51.704;7.822;2023-03-14T00:21:07;7.78;;;2.55;;
46415;SDS011;32620;51.704;7.822;2023-03-14T00:23:34;8.93;;;2.30;;
46415;SDS011;32620;51.704;7.822;2023-03-14T00:26:03;10.93;;;2.78;;
46415;SDS011;32620;51.704;7.822;2023-03-14T00:28:30;7.88;;;2.50;;
46415;SDS011;32620;51.704;7.822;2023-03-14T00:30:56;5.90;;;2.25;;
46415;SDS011;32620;51.704;7.822;2023-03-14T00:33:22;6.95;;;1.90;;
46415;SDS011;32620;51.704;7.822;2023-03-14T00:36:03;6.45;;;2.53;;
46415;SDS011;32620;51.704;7.822;2023-03-14T00:38:32;8.43;;;2.53;;
46415;SDS011;32620;51.704;7.822;2023-03-14T00:40:58;12.30;;;2.50;;
46415;SDS011;32620;51.704;7.822;2023-03-14T00:43:24;9.18;;;2.42;;
46415;SDS011;32620;51.704;7.822;2023-03-14T00:45:50;9.07;;;2.42;;
46415;SDS011;32620;51.704;7.822;2023-03-14T00:48:16;9.70;;;2.22;;
46415;SDS011;32620;51.704;7.822;2023-03-14T00:50:43;11.38;;;2.30;;
46415;SDS011;32620;51.704;7.822;2023-03-14T00:53:08;6.60;;;2.20;;
46415;SDS011;32620;51.704;7.822;2023-03-14T00:55:38;9.43;;;2.33;;
46415;SDS011;32620;51.704;7.822;2023-03-14T00:58:04;12.45;;;2.50;;
46415;SDS011;32620;51.704;7.822;2023-03-14T01:00:29;6.35;;;2.08;;
46415;SDS011;32620;51.704;7.822;2023-03-14T01:02:55;8.75;;;2.33;;
46415;SDS011;32620;51.704;7.822;2023-03-14T01:05:21;9.25;;;2.35;;
46415;SDS011;32620;51.704;7.822;2023-03-14T01:07:47;11.00;;;2.40;;
46415;SDS011;32620;51.704;7.822;2023-03-14T01:10:12;6.72;;;2.40;;
46415;SDS011;32620;51.704;7.822;2023-03-14T01:12:38;6.50;;;2.17;;
46415;SDS011;32620;51.704;7.822;2023-03-14T01:15:04;7.68;;;1.90;;
46415;SDS011;32620;51.704;7.822;2023-03-14T01:17:30;10.90;;;1.90;;
46415;SDS011;32620;51.704;7.822;2023-03-14T01:19:55;4.90;;;1.98;;
46415;SDS011;32620;51.704;7.822;2023-03-14T01:22:21;5.80;;;1.73;;
46415;SDS011;32620;51.704;7.822;2023-03-14T01:24:47;6.78;;;2.35;;
46415;SDS011;32620;51.704;7.822;2023-03-14T01:27:12;7.30;;;2.15;;
46415;SDS011;32620;51.704;7.822;2023-03-14T01:29:38;5.35;;;2.10;;
46415;SDS011;32620;51.704;7.822;2023-03-14T01:32:04;6.32;;;2.00;;
46415;SDS011;32620;51.704;7.822;2023-03-14T01:34:30;7.55;;;2.05;;
46415;SDS011;32620;51.704;7.822;2023-03-14T01:36:55;8.15;;;2.45;;
46415;SDS011;32620;51.704;7.822;2023-03-14T01:39:21;6.63;;;2.25;;
46415;SDS011;32620;51.704;7.822;2023-03-14T01:41:46;7.38;;;2.28;;
46415;SDS011;32620;51.704;7.822;2023-03-14T01:44:12;9.95;;;2.25;;
46415;SDS011;32620;51.704;7.822;2023-03-14T01:54:49;4.30;;;1.40;;
46415;SDS011;32620;51.704;7.822;2023-03-14T01:57:29;5.90;;;1.55;;
46415;SDS011;32620;51.704;7.822;2023-03-14T02:00:03;4.10;;;1.10;;
46415;SDS011;32620;51.704;7.822;2023-03-14T02:02:40;3.33;;;1.00;;
46415;SDS011;32620;51.704;7.822;2023-03-14T02:05:09;3.35;;;1.10;;
46415;SDS011;32620;51.704;7.822;2023-03-14T02:07:51;4.10;;;1.15;;
46415;SDS011;32620;51.704;7.822;2023-03-14T02:10:19;2.65;;;1.05;;
46415;SDS011;32620;51.704;7.822;2023-03-14T02:12:48;7.03;;;1.60;;
46415;SDS011;32620;51.704;7.822;2023-03-14T02:15:14;3.72;;;1.42;;
46415;SDS011;32620;51.704;7.822;2023-03-14T02:17:40;2.83;;;1.20;;
46415;SDS011;32620;51.704;7.822;2023-03-14T02:22:52;9.70;;;1.50;;
46415;SDS011;32620;51.704;7.822;2023-03-14T02:25:36;5.28;;;1.70;;
46415;SDS011;32620;51.704;7.822;2023-03-14T02:28:08;9.93;;;2.00;;
46415;SDS011;32620;51.704;7.822;2023-03-14T02:30:35;7.93;;;1.42;;
46415;SDS011;32620;51.704;7.822;2023-03-14T02:33:05;4.18;;;1.38;;
46415;SDS011;32620;51.704;7.822;2023-03-14T02:35:37;8.77;;;1.92;;
46415;SDS011;32620;51.704;7.822;2023-03-14T02:40:56;3.85;;;1.48;;
46415;SDS011;32620;51.704;7.822;2023-03-14T02:43:21;6.38;;;1.30;;
46415;SDS011;32620;51.704;7.822;2023-03-14T02:45:47;6.88;;;1.75;;
46415;SDS011;32620;51.704;7.822;2023-03-14T02:48:15;7.40;;;1.63;;
46415;SDS011;32620;51.704;7.822;2023-03-14T02:50:46;7.03;;;1.70;;
46415;SDS011;32620;51.704;7.822;2023-03-14T02:53:15;7.57;;;2.15;;
46415;SDS011;32620;51.704;7.822;2023-03-14T02:55:45;4.68;;;1.75;;
46415;SDS011;32620;51.704;7.822;2023-03-14T02:58:11;12.35;;;1.70;;
46415;SDS011;32620;51.704;7.822;2023-03-14T03:00:37;5.15;;;1.33;;
46415;SDS011;32620;51.704;7.822;2023-03-14T03:03:03;8.93;;;1.60;;
46415;SDS011;32620;51.704;7.822;2023-03-14T03:05:30;9.45;;;1.95;;
46415;SDS011;32620;51.704;7.822;2023-03-14T03:07:56;10.40;;;1.73;;
46415;SDS011;32620;51.704;7.822;2023-03-14T03:10:22;5.53;;;1.73;;
46415;SDS011;32620;51.704;7.822;2023-03-14T03:12:48;6.30;;;1.75;;
46415;SDS011;32620;51.704;7.822;2023-03-14T03:15:13;8.35;;;1.70;;
46415;SDS011;32620;51.704;7.822;2023-03-14T03:17:39;7.80;;;1.70;;
46415;SDS011;32620;51.704;7.822;2023-03-14T03:20:04;8.43;;;2.10;;
46415;SDS011;32620;51.704;7.822;2023-03-14T03:22:33;5.88;;;1.52;;
46415;SDS011;32620;51.704;7.822;2023-03-14T03:24:59;6.93;;;1.83;;
46415;SDS011;32620;51.704;7.822;2023-03-14T03:27:24;7.82;;;1.73;;
46415;SDS011;32620;51.704;7.822;2023-03-14T03:29:50;11.85;;;2.80;;
46415;SDS011;32620;51.704;7.822;2023-03-14T03:32:15;6.28;;;1.70;;
46415;SDS011;32620;51.704;7.822;2023-03-14T03:34:41;10.70;;;2.25;;
46415;SDS011;32620;51.704;7.822;2023-03-14T03:37:07;9.35;;;2.10;;
46415;SDS011;32620;51.704;7.822;2023-03-14T03:39:32;7.07;;;1.85;;
46415;SDS011;32620;51.704;7.822;2023-03-14T03:41:58;13.60;;;1.92;;
46415;SDS011;32620;51.704;7.822;2023-03-14T03:44:23;9.05;;;1.98;;
46415;SDS011;32620;51.704;7.822;2023-03-14T03:46:49;8.73;;;2.30;;
46415;SDS011;32620;51.704;7.822;2023-03-14T03:49:14;7.53;;;1.73;;
46415;SDS011;32620;51.704;7.822;2023-03-14T03:51:40;9.05;;;1.77;;
46415;SDS011;32620;51.704;7.822;2023-03-14T03:54:05;12.70;;;2.45;;
46415;SDS011;32620;51.704;7.822;2023-03-14T03:56:31;7.20;;;1.73;;
46415;SDS011;32620;51.704;7.822;2023-03-14T03:58:57;8.55;;;2.15;;
46415;SDS011;32620;51.704;7.822;2023-03-14T04:01:22;9.55;;;2.15;;
46415;SDS011;32620;51.704;7.822;2023-03-14T04:03:48;7.60;;;1.85;;
46415;SDS011;32620;51.704;7.822;2023-03-14T04:06:13;13.73;;;2.63;;
46415;SDS011;32620;51.704;7.822;2023-03-14T04:08:39;12.45;;;2.38;;
46415;SDS011;32620;51.704;7.822;2023-03-14T04:11:06;9.82;;;2.25;;
46415;SDS011;32620;51.704;7.822;2023-03-14T04:13:32;9.48;;;2.67;;
46415;SDS011;32620;51.704;7.822;2023-03-14T04:15:58;11.90;;;2.05;;
46415;SDS011;32620;51.704;7.822;2023-03-14T04:18:24;8.48;;;2.10;;
46415;SDS011;32620;51.704;7.822;2023-03-14T04:20:51;10.75;;;2.28;;
46415;SDS011;32620;51.704;7.822;2023-03-14T04:23:18;10.52;;;2.22;;
46415;SDS011;32620;51.704;7.822;2023-03-14T04:25:44;8.40;;;2.65;;
46415;SDS011;32620;51.704;7.822;2023-03-14T04:28:09;10.25;;;2.50;;
46415;SDS011;32620;51.704;7.822;2023-03-14T04:30:35;8.00;;;2.20;;
46415;SDS011;32620;51.704;7.822;2023-03-14T04:33:00;10.00;;;2.05;;
46415;SDS011;32620;51.704;7.822;2023-03-14T04:35:26;11.55;;;2.05;;
46415;SDS011;32620;51.704;7.822;2023-03-14T04:37:51;12.15;;;2.55;;
46415;SDS011;32620;51.704;7.822;2023-03-14T04:40:17;12.70;;;2.35;;
46415;SDS011;32620;51.704;7.822;2023-03-14T04:42:43;10.43;;;2.00;;
46415;SDS011;32620;51.704;7.822;2023-03-14T04:45:09;8.73;;;2.50;;
46415;SDS011;32620;51.704;7.822;2023-03-14T04:47:34;9.52;;;2.22;;
46415;SDS011;32620;51.704;7.822;2023-03-14T04:50:00;11.57;;;2.28;;
46415;SDS011;32620;51.704;7.822;2023-03-14T04:52:26;9.50;;;2.08;;
46415;SDS011;32620;51.704;7.822;2023-03-14T04:54:52;9.90;;;2.15;;
46415;SDS011;32620;51.704;7.822;2023-03-14T04:57:17;6.25;;;1.77;;
46415;SDS011;32620;51.704;7.822;2023-03-14T04:59:43;6.15;;;1.77;;
46415;SDS011;32620;51.704;7.822;2023-03-14T05:02:08;10.85;;;1.88;;
46415;SDS011;32620;51.704;7.822;2023-03-14T05:04:34;7.50;;;1.35;;
46415;SDS011;32620;51.704;7.822;2023-03-14T05:07:00;4.47;;;1.08;;
46415;SDS011;32620;51.704;7.822;2023-03-14T05:09:25;3.67;;;1.40;;
46415;SDS011;32620;51.704;7.822;2023-03-14T05:11:51;6.05;;;1.35;;
46415;SDS011;32620;51.704;7.822;2023-03-14T05:14:17;5.47;;;1.10;;
46415;SDS011;32620;51.704;7.822;2023-03-14T05:16:42;2.60;;;0.90;;
46415;SDS011;32620;51.704;7.822;2023-03-14T05:19:08;7.03;;;1.10;;
46415;SDS011;32620;51.704;7.822;2023-03-14T05:21:34;5.38;;;1.27;;
46415;SDS011;32620;51.704;7.822;2023-03-14T05:24:00;2.03;;;0.80;;
46415;SDS011;32620;51.704;7.822;2023-03-14T05:26:25;2.70;;;1.02;;
46415;SDS011;32620;51.704;7.822;2023-03-14T05:28:51;5.32;;;1.00;;
46415;SDS011;32620;51.704;7.822;2023-03-14T05:31:16;3.47;;;1.17;;
46415;SDS011;32620;51.704;7.822;2023-03-14T05:33:42;3.65;;;1.58;;
46415;SDS011;32620;51.704;7.822;2023-03-14T05:36:07;4.30;;;1.00;;
46415;SDS011;32620;51.704;7.822;2023-03-14T05:38:33;2.55;;;0.85;;
46415;SDS011;32620;51.704;7.822;2023-03-14T05:40:59;1.27;;;0.75;;
46415;SDS011;32620;51.704;7.822;2023-03-14T05:43:24;2.33;;;0.88;;
46415;SDS011;32620;51.704;7.822;2023-03-14T05:45:50;2.05;;;0.98;;
46415;SDS011;32620;51.704;7.822;2023-03-14T05:48:15;2.33;;;0.80;;
46415;SDS011;32620;51.704;7.822;2023-03-14T05:50:41;11.55;;;6.45;;
46415;SDS011;32620;51.704;7.822;2023-03-14T05:53:07;3.60;;;0.90;;
46415;SDS011;32620;51.704;7.822;2023-03-14T05:55:33;2.55;;;0.95;;
46415;SDS011;32620;51.704;7.822;2023-03-14T05:57:58;4.57;;;0.90;;
46415;SDS011;32620;51.704;7.822;2023-03-14T06:00:24;1.67;;;1.50;;
46415;SDS011;32620;51.704;7.822;2023-03-14T06:02:50;2.63;;;1.40;;
46415;SDS011;32620;51.704;7.822;2023-03-14T06:05:15;1.98;;;0.90;;
46415;SDS011;32620;51.704;7.822;2023-03-14T06:07:41;3.60;;;1.00;;
46415;SDS011;32620;51.704;7.822;2023-03-14T06:10:07;3.22;;;1.02;;
46415;SDS011;32620;51.704;7.822;2023-03-14T06:12:32;2.42;;;1.10;;
46415;SDS011;32620;51.704;7.822;2023-03-14T06:14:58;2.58;;;0.90;;
46415;SDS011;32620;51.704;7.822;2023-03-14T06:17:24;1.67;;;0.80;;
46415;SDS011;32620;51.704;7.822;2023-03-14T06:19:49;4.05;;;0.95;;
46415;SDS011;32620;51.704;7.822;2023-03-14T06:22:15;2.17;;;0.93;;
46415;SDS011;32620;51.704;7.822;2023-03-14T06:24:41;4.28;;;1.20;;
46415;SDS011;32620;51.704;7.822;2023-03-14T06:27:06;3.33;;;1.35;;
46415;SDS011;32620;51.704;7.822;2023-03-14T06:29:32;5.90;;;1.20;;
46415;SDS011;32620;51.704;7.822;2023-03-14T06:31:57;5.28;;;1.50;;
46415;SDS011;32620;51.704;7.822;2023-03-14T06:34:23;3.47;;;2.15;;
46415;SDS011;32620;51.704;7.822;2023-03-14T06:36:49;3.38;;;2.60;;
46415;SDS011;32620;51.704;7.822;2023-03-14T06:39:14;3.05;;;1.77;;
46415;SDS011;32620;51.704;7.822;2023-03-14T06:41:40;4.63;;;1.33;;
46415;SDS011;32620;51.704;7.822;2023-03-14T06:44:05;2.88;;;1.40;;
46415;SDS011;32620;51.704;7.822;2023-03-14T06:46:31;5.40;;;1.65;;
46415;SDS011;32620;51.704;7.822;2023-03-14T06:48:56;3.25;;;1.33;;
46415;SDS011;32620;51.704;7.822;2023-03-14T06:51:22;5.13;;;2.67;;
46415;SDS011;32620;51.704;7.822;2023-03-14T06:53:47;4.32;;;1.90;;
46415;SDS011;32620;51.704;7.822;2023-03-14T06:56:13;5.88;;;2.35;;
46415;SDS011;32620;51.704;7.822;2023-03-14T06:58:38;2.92;;;1.40;;
46415;SDS011;32620;51.704;7.822;2023-03-14T07:01:04;5.05;;;1.40;;
46415;SDS011;32620;51.704;7.822;2023-03-14T07:03:30;3.42;;;1.90;;
46415;SDS011;32620;51.704;7.822;2023-03-14T07:05:56;3.63;;;1.90;;
46415;SDS011;32620;51.704;7.822;2023-03-14T07:08:21;4.35;;;2.10;;
46415;SDS011;32620;51.704;7.822;2023-03-14T07:10:47;6.28;;;2.38;;
46415;SDS011;32620;51.704;7.822;2023-03-14T07:13:12;5.88;;;2.47;;
46415;SDS011;32620;51.704;7.822;2023-03-14T07:15:38;8.68;;;3.90;;
46415;SDS011;32620;51.704;7.822;2023-03-14T07:18:03;7.78;;;3.88;;
46415;SDS011;32620;51.704;7.822;2023-03-14T07:20:29;13.45;;;4.45;;
46415;SDS011;32620;51.704;7.822;2023-03-14T07:22:57;8.20;;;4.35;;
46415;SDS011;32620;51.704;7.822;2023-03-14T07:25:24;7.10;;;2.80;;
46415;SDS011;32620;51.704;7.822;2023-03-14T07:27:50;7.18;;;3.13;;
46415;SDS011;32620;51.704;7.822;2023-03-14T07:30:16;9.05;;;3.10;;
46415;SDS011;32620;51.704;7.822;2023-03-14T07:32:41;9.07;;;2.50;;
46415;SDS011;32620;51.704;7.822;2023-03-14T07:35:07;4.28;;;2.33;;
46415;SDS011;32620;51.704;7.822;2023-03-14T07:37:33;2.78;;;2.30;;
46415;SDS011;32620;51.704;7.822;2023-03-14T07:39:58;7.75;;;2.55;;
46415;SDS011;32620;51.704;7.822;2023-03-14T07:42:24;5.78;;;2.33;;
46415;SDS011;32620;51.704;7.822;2023-03-14T07:44:49;4.32;;;1.90;;
46415;SDS011;32620;51.704;7.822;2023-03-14T07:47:15;6.72;;;2.10;;
46415;SDS011;32620;51.704;7.822;2023-03-14T07:49:40;3.40;;;1.98;;
46415;SDS011;32620;51.704;7.822;2023-03-14T07:52:06;4.28;;;2.28;;
46415;SDS011;32620;51.704;7.822;2023-03-14T07:54:31;4.18;;;2.05;;
46415;SDS011;32620;51.704;7.822;2023-03-14T07:56:57;5.55;;;1.83;;
46415;SDS011;32620;51.704;7.822;2023-03-14T07:59:25;3.95;;;2.22;;
46415;SDS011;32620;51.704;7.822;2023-03-14T08:01:51;5.63;;;1.90;;
46415;SDS011;32620;51.704;7.822;2023-03-14T08:04:17;3.22;;;1.92;;
46415;SDS011;32620;51.704;7.822;2023-03-14T08:06:43;4.32;;;2.35;;
46415;SDS011;32620;51.704;7.822;2023-03-14T08:09:08;4.13;;;1.85;;
46415;SDS011;32620;51.704;7.822;2023-03-14T08:11:34;6.72;;;2.10;;
46415;SDS011;32620;51.704;7.822;2023-03-14T08:14:00;3.58;;;1.80;;
46415;SDS011;32620;51.704;7.822;2023-03-14T08:16:25;4.93;;;2.00;;
46415;SDS011;32620;51.704;7.822;2023-03-14T08:18:51;2.53;;;1.92;;
46415;SDS011;32620;51.704;7.822;2023-03-14T08:21:16;3.30;;;2.08;;
46415;SDS011;32620;51.704;7.822;2023-03-14T08:23:42;2.10;;;2.00;;
46415;SDS011;32620;51.704;7.822;2023-03-14T08:26:07;3.42;;;2.22;;
46415;SDS011;32620;51.704;7.822;2023-03-14T08:28:33;2.10;;;1.90;;
46415;SDS011;32620;51.704;7.822;2023-03-14T08:30:59;4.30;;;1.90;;
46415;SDS011;32620;51.704;7.822;2023-03-14T08:33:26;5.50;;;2.30;;
46415;SDS011;32620;51.704;7.822;2023-03-14T08:35:54;4.40;;;2.28;;
46415;SDS011;32620;51.704;7.822;2023-03-14T08:38:21;8.13;;;2.42;;
46415;SDS011;32620;51.704;7.822;2023-03-14T08:40:46;6.80;;;2.47;;
46415;SDS011;32620;51.704;7.822;2023-03-14T08:43:12;3.03;;;2.42;;
46415;SDS011;32620;51.704;7.822;2023-03-14T08:45:38;4.90;;;2.40;;
46415;SDS011;32620;51.704;7.822;2023-03-14T08:48:03;5.07;;;2.78;;
46415;SDS011;32620;51.704;7.822;2023-03-14T08:50:29;5.70;;;3.85;;
46415;SDS011;32620;51.704;7.822;2023-03-14T08:52:55;3.85;;;2.65;;
46415;SDS011;32620;51.704;7.822;2023-03-14T08:55:24;3.28;;;2.75;;
46415;SDS011;32620;51.704;7.822;2023-03-14T08:57:52;4.25;;;3.10;;
46415;SDS011;32620;51.704;7.822;2023-03-14T09:00:18;4.43;;;2.38;;
46415;SDS011;32620;51.704;7.822;2023-03-14T09:02:44;3.28;;;2.38;;
46415;SDS011;32620;51.704;7.822;2023-03-14T09:05:09;7.88;;;4.25;;
46415;SDS011;32620;51.704;7.822;2023-03-14T09:07:35;19.60;;;14.98;;
46415;SDS011;32620;51.704;7.822;2023-03-14T09:10:02;16.45;;;11.05;;
46415;SDS011;32620;51.704;7.822;2023-03-14T09:12:28;4.65;;;3.10;;
46415;SDS011;32620;51.704;7.822;2023-03-14T09:14:53;5.18;;;2.83;;
46415;SDS011;32620;51.704;7.822;2023-03-14T09:17:19;12.43;;;9.85;;
46415;SDS011;32620;51.704;7.822;2023-03-14T09:19:44;13.90;;;9.93;;
46415;SDS011;32620;51.704;7.822;2023-03-14T09:22:10;7.80;;;5.20;;
46415;SDS011;32620;51.704;7.822;2023-03-14T09:24:35;5.53;;;3.78;;
46415;SDS011;32620;51.704;7.822;2023-03-14T09:27:01;5.03;;;4.07;;
46415;SDS011;32620;51.704;7.822;2023-03-14T09:29:27;6.00;;;3.20;;
46415;SDS011;32620;51.704;7.822;2023-03-14T09:31:52;5.82;;;5.22;;
46415;SDS011;32620;51.704;7.822;2023-03-14T09:34:18;6.75;;;4.75;;
46415;SDS011;32620;51.704;7.822;2023-03-14T09:36:44;4.80;;;3.53;;
46415;SDS011;32620;51.704;7.822;2023-03-14T09:39:10;7.72;;;6.53;;
46415;SDS011;32620;51.704;7.822;2023-03-14T09:41:37;7.07;;;5.82;;
46415;SDS011;32620;51.704;7.822;2023-03-14T09:44:11;8.70;;;7.60;;
46415;SDS011;32620;51.704;7.822;2023-03-14T09:46:40;13.63;;;10.82;;
46415;SDS011;32620;51.704;7.822;2023-03-14T09:49:10;17.90;;;11.98;;
46415;SDS011;32620;51.704;7.822;2023-03-14T09:51:41;24.63;;;17.35;;
46415;SDS011;32620;51.704;7.822;2023-03-14T09:54:11;25.55;;;20.85;;
46415;SDS011;32620;51.704;7.822;2023-03-14T09:56:50;8.25;;;7.30;;
46415;SDS011;32620;51.704;7.822;2023-03-14T09:59:16;8.85;;;5.75;;
46415;SDS011;32620;51.704;7.822;2023-03-14T10:01:42;4.78;;;4.25;;
46415;SDS011;32620;51.704;7.822;2023-03-14T10:04:12;5.47;;;3.20;;
46415;SDS011;32620;51.704;7.822;2023-03-14T10:06:42;4.50;;;2.40;;
46415;SDS011;32620;51.704;7.822;2023-03-14T10:09:10;5.90;;;2.75;;
46415;SDS011;32620;51.704;7.822;2023-03-14T10:11:40;6.07;;;3.78;;
46415;SDS011;32620;51.704;7.822;2023-03-14T10:14:07;4.78;;;3.03;;
46415;SDS011;32620;51.704;7.822;2023-03-14T10:16:36;1.90;;;1.50;;
46415;SDS011;32620;51.704;7.822;2023-03-14T10:19:09;2.58;;;1.17;;
46415;SDS011;32620;51.704;7.822;2023-03-14T10:21:39;0.70;;;0.70;;
46415;SDS011;32620;51.704;7.822;2023-03-14T10:24:08;2.70;;;1.15;;
46415;SDS011;32620;51.704;7.822;2023-03-14T10:26:42;2.75;;;1.10;;
46415;SDS011;32620;51.704;7.822;2023-03-14T10:29:10;1.23;;;0.90;;
46415;SDS011;32620;51.704;7.822;2023-03-14T10:31:53;0.63;;;0.63;;
46415;SDS011;32620;51.704;7.822;2023-03-14T10:34:28;0.77;;;0.68;;
46415;SDS011;32620;51.704;7.822;2023-03-14T10:36:57;2.38;;;0.80;;
46415;SDS011;32620;51.704;7.822;2023-03-14T10:39:59;0.65;;;0.50;;
46415;SDS011;32620;51.704;7.822;2023-03-14T10:42:30;0.93;;;0.50;;
46415;SDS011;32620;51.704;7.822;2023-03-14T10:45:00;1.65;;;0.60;;
46415;SDS011;32620;51.704;7.822;2023-03-14T10:47:27;1.35;;;0.68;;
46415;SDS011;32620;51.704;7.822;2023-03-14T10:49:53;1.73;;;1.00;;
46415;SDS011;32620;51.704;7.822;2023-03-14T10:52:21;1.38;;;0.93;;
46415;SDS011;32620;51.704;7.822;2023-03-14T10:54:57;0.68;;;0.65;;
46415;SDS011;32620;51.704;7.822;2023-03-14T10:57:24;2.17;;;0.90;;
46415;SDS011;32620;51.704;7.822;2023-03-14T10:59:50;0.88;;;0.73;;
46415;SDS011;32620;51.704;7.822;2023-03-14T11:05:01;1.10;;;0.70;;
46415;SDS011;32620;51.704;7.822;2023-03-14T11:07:49;0.85;;;0.50;;
46415;SDS011;32620;51.704;7.822;2023-03-14T11:10:23;1.77;;;0.60;;
46415;SDS011;32620;51.704;7.822;2023-03-14T11:12:56;1.23;;;0.75;;
46415;SDS011;32620;51.704;7.822;2023-03-14T11:15:45;0.50;;;0.50;;
46415;SDS011;32620;51.704;7.822;2023-03-14T11:24:10;2.55;;;0.90;;
46415;SDS011;32620;51.704;7.822;2023-03-14T11:27:07;1.25;;;1.15;;
46415;SDS011;32620;51.704;7.822;2023-03-14T11:29:45;1.90;;;1.10;;
46415;SDS011;32620;51.704;7.822;2023-03-14T11:32:37;2.10;;;1.30;;
46415;SDS011;32620;51.704;7.822;2023-03-14T11:35:22;4.32;;;1.50;;
46415;SDS011;32620;51.704;7.822;2023-03-14T11:38:19;1.42;;;1.20;;
46415;SDS011;32620;51.704;7.822;2023-03-14T11:41:10;4.07;;;1.50;;
46415;SDS011;32620;51.704;7.822;2023-03-14T11:43:40;3.90;;;1.30;;
46415;SDS011;32620;51.704;7.822;2023-03-14T11:46:11;1.63;;;1.25;;
46415;SDS011;32620;51.704;7.822;2023-03-14T11:48:57;2.50;;;1.10;;
46415;SDS011;32620;51.704;7.822;2023-03-14T11:51:32;3.72;;;1.10;;
46415;SDS011;32620;51.704;7.822;2023-03-14T11:54:04;4.85;;;1.00;;
46415;SDS011;32620;51.704;7.822;2023-03-14T11:57:24;3.55;;;1.30;;
46415;SDS011;32620;51.704;7.822;2023-03-14T11:59:48;5.85;;;1.17;;
46415;SDS011;32620;51.704;7.822;2023-03-14T12:02:27;6.00;;;1.10;;
46415;SDS011;32620;51.704;7.822;2023-03-14T12:11:33;5.05;;;1.10;;
46415;SDS011;32620;51.704;7.822;2023-03-14T12:14:36;3.65;;;1.23;;
46415;SDS011;32620;51.704;7.822;2023-03-14T12:19:59;5.28;;;2.13;;
46415;SDS011;32620;51.704;7.822;2023-03-14T12:22:47;5.13;;;2.30;;
46415;SDS011;32620;51.704;7.822;2023-03-14T12:25:19;5.15;;;2.88;;
46415;SDS011;32620;51.704;7.822;2023-03-14T12:33:27;6.75;;;3.15;;
46415;SDS011;32620;51.704;7.822;2023-03-14T12:35:58;8.40;;;3.22;;
46415;SDS011;32620;51.704;7.822;2023-03-14T12:38:31;8.20;;;2.63;;
46415;SDS011;32620;51.704;7.822;2023-03-14T12:44:27;7.47;;;2.45;;
46415;SDS011;32620;51.704;7.822;2023-03-14T12:49:48;10.52;;;2.63;;
46415;SDS011;32620;51.704;7.822;2023-03-14T12:52:21;6.18;;;2.50;;
46415;SDS011;32620;51.704;7.822;2023-03-14T12:55:10;7.93;;;2.38;;
46415;SDS011;32620;51.704;7.822;2023-03-14T12:57:45;7.53;;;2.28;;
46415;SDS011;32620;51.704;7.822;2023-03-14T13:00:22;12.55;;;2.70;;
46415;SDS011;32620;51.704;7.822;2023-03-14T13:02:59;13.45;;;2.20;;
46415;SDS011;32620;51.704;7.822;2023-03-14T13:05:57;15.07;;;2.30;;
46415;SDS011;32620;51.704;7.822;2023-03-14T13:08:40;18.42;;;1.95;;
46415;SDS011;32620;51.704;7.822;2023-03-14T13:11:08;11.75;;;2.10;;
46415;SDS011;32620;51.704;7.822;2023-03-14T13:13:41;11.57;;;2.35;;
46415;SDS011;32620;51.704;7.822;2023-03-14T13:16:17;35.30;;;7.60;;
46415;SDS011;32620;51.704;7.822;2023-03-14T13:18:45;22.60;;;5.20;;
46415;SDS011;32620;51.704;7.822;2023-03-14T13:21:13;15.88;;;3.47;;
46415;SDS011;32620;51.704;7.822;2023-03-14T13:26:52;17.38;;;3.15;;
46415;SDS011;32620;51.704;7.822;2023-03-14T13:29:23;16.85;;;2.65;;
46415;SDS011;32620;51.704;7.822;2023-03-14T13:31:52;14.90;;;3.70;;
46415;SDS011;32620;51.704;7.822;2023-03-14T13:34:19;18.20;;;2.85;;
46415;SDS011;32620;51.704;7.822;2023-03-14T13:36:45;14.38;;;2.45;;
46415;SDS011;32620;51.704;7.822;2023-03-14T13:39:14;20.17;;;3.95;;
46415;SDS011;32620;51.704;7.822;2023-03-14T13:41:42;12.95;;;2.85;;
46415;SDS011;32620;51.704;7.822;2023-03-14T13:44:13;17.50;;;3.15;;
46415;SDS011;32620;51.704;7.822;2023-03-14T13:46:42;16.25;;;2.72;;
46415;SDS011;32620;51.704;7.822;2023-03-14T13:49:12;16.92;;;3.00;;
46415;SDS011;32620;51.704;7.822;2023-03-14T13:51:46;12.23;;;3.25;;
46415;SDS011;32620;51.704;7.822;2023-03-14T13:54:13;23.02;;;3.03;;
46415;SDS011;32620;51.704;7.822;2023-03-14T13:56:40;18.60;;;3.10;;
46415;SDS011;32620;51.704;7.822;2023-03-14T13:59:20;15.02;;;2.78;;
46415;SDS011;32620;51.704;7.822;2023-03-14T14:01:48;13.00;;;3.03;;
46415;SDS011;32620;51.704;7.822;2023-03-14T14:04:15;15.40;;;3.33;;
46415;SDS011;32620;51.704;7.822;2023-03-14T14:06:49;17.90;;;3.30;;
46415;SDS011;32620;51.704;7.822;2023-03-14T14:09:21;23.50;;;3.90;;
46415;SDS011;32620;51.704;7.822;2023-03-14T14:12:06;18.10;;;2.92;;
46415;SDS011;32620;51.704;7.822;2023-03-14T14:14:39;19.45;;;3.50;;
46415;SDS011;32620;51.704;7.822;2023-03-14T14:17:11;21.63;;;4.38;;
46415;SDS011;32620;51.704;7.822;2023-03-14T14:19:40;19.80;;;3.42;;
46415;SDS011;32620;51.704;7.822;2023-03-14T14:22:08;24.38;;;4.05;;
46415;SDS011;32620;51.704;7.822;2023-03-14T14:24:35;25.88;;;3.88;;
46415;SDS011;32620;51.704;7.822;2023-03-14T14:27:18;22.85;;;4.05;;
46415;SDS011;32620;51.704;7.822;2023-03-14T14:29:58;29.90;;;4.07;;
46415;SDS011;32620;51.704;7.822;2023-03-14T14:32:37;24.63;;;3.92;;
46415;SDS011;32620;51.704;7.822;2023-03-14T14:35:04;18.63;;;5.03;;
46415;SDS011;32620;51.704;7.822;2023-03-14T14:37:32;18.75;;;4.00;;
46415;SDS011;32620;51.704;7.822;2023-03-14T14:40:06;14.40;;;2.90;;
46415;SDS011;32620;51.704;7.822;2023-03-14T14:42:35;18.85;;;3.83;;
46415;SDS011;32620;51.704;7.822;2023-03-14T14:45:04;17.25;;;3.30;;
46415;SDS011;32620;51.704;7.822;2023-03-14T14:47:35;17.40;;;4.15;;
46415;SDS011;32620;51.704;7.822;2023-03-14T14:50:20;16.98;;;3.08;;
46415;SDS011;32620;51.704;7.822;2023-03-14T14:52:56;13.13;;;2.92;;
46415;SDS011;32620;51.704;7.822;2023-03-14T14:55:28;17.25;;;3.45;;
46415;SDS011;32620;51.704;7.822;2023-03-14T14:57:56;14.40;;;2.60;;
46415;SDS011;32620;51.704;7.822;2023-03-14T15:00:23;17.38;;;2.33;;
46415;SDS011;32620;51.704;7.822;2023-03-14T15:02:52;20.58;;;2.65;;
46415;SDS011;32620;51.704;7.822;2023-03-14T15:05:21;16.00;;;2.70;;
46415;SDS011;32620;51.704;7.822;2023-03-14T15:07:48;15.98;;;3.03;;
46415;SDS011;32620;51.704;7.822;2023-03-14T15:10:22;14.20;;;2.50;;
46415;SDS011;32620;51.704;7.822;2023-03-14T15:12:48;12.40;;;3.33;;
46415;SDS011;32620;51.704;7.822;2023-03-14T15:15:15;12.63;;;2.70;;
46415;SDS011;32620;51.704;7.822;2023-03-14T15:17:41;10.38;;;2.88;;
46415;SDS011;32620;51.704;7.822;2023-03-14T15:20:10;13.55;;;3.17;;
46415;SDS011;32620;51.704;7.822;2023-03-14T15:22:38;18.33;;;2.75;;
46415;SDS011;32620;51.704;7.822;2023-03-14T15:25:04;14.63;;;2.70;;
46415;SDS011;32620;51.704;7.822;2023-03-14T15:27:30;13.98;;;2.67;;
46415;SDS011;32620;51.704;7.822;2023-03-14T15:29:57;17.02;;;2.65;;
46415;SDS011;32620;51.704;7.822;2023-03-14T15:32:24;6.85;;;2.20;;
46415;SDS011;32620;51.704;7.822;2023-03-14T15:34:52;13.60;;;2.28;;
46415;SDS011;32620;51.704;7.822;2023-03-14T15:37:18;16.13;;;3.33;;
46415;SDS011;32620;51.704;7.822;2023-03-14T15:39:44;9.45;;;2.45;;